sensor_id;sensor_type;location;lat;lon;timestamp;P1;durP1;ratioP1;P2;durP2;ratioP2
12441;SDS011;6285;48.804;9.220;2022-12-28T00:00:12;8.30;;;6.82;;
12441;SDS011;6285;48.804;9.220;2022-12-28T00:02:39;11.48;;;7.80;;
12441;SDS011;6285;48.804;9.220;2022-12-28T00:05:07;12.25;;;7.32;;
12441;SDS011;6285;48.804;9.220;2022-12-28T00:07:34;9.30;;;7.07;;
12441;SDS011;6285;48.804;9.220;2022-12-28T00:10:01;12.13;;;7.50;;
12441;SDS011;6285;48.804;9.220;2022-12-28T00:12:29;12.43;;;7.22;;
12441;SDS011;6285;48.804;9.220;2022-12-28T00:14:56;9.57;;;7.43;;
12441;SDS011;6285;48.804;9.220;2022-12-28T00:17:25;11.93;;;7.50;;
12441;SDS011;6285;48.804;9.220;2022-12-28T00:19:52;9.82;;;7.18;;
12441;SDS011;6285;48.804;9.220;2022-12-28T00:22:19;12.13;;;7.75;;
12441;SDS011;6285;48.804;9.220;2022-12-28T00:24:46;9.63;;;6.93;;
12441;SDS011;6285;48.804;9.220;2022-12-28T00:27:13;8.32;;;7.35;;
12441;SDS011;6285;48.804;9.220;2022-12-28T00:29:40;12.18;;;7.30;;
12441;SDS011;6285;48.804;9.220;2022-12-28T00:32:07;8.80;;;6.95;;
12441;SDS011;6285;48.804;9.220;2022-12-28T00:34:36;12.40;;;8.60;;
12441;SDS011;6285;48.804;9.220;2022-12-28T00:37:03;11.32;;;7.38;;
12441;SDS011;6285;48.804;9.220;2022-12-28T00:39:30;12.60;;;7.38;;
12441;SDS011;6285;48.804;9.220;2022-12-28T00:41:57;11.43;;;7.82;;
12441;SDS011;6285;48.804;9.220;2022-12-28T00:44:24;11.90;;;8.38;;
12441;SDS011;6285;48.804;9.220;2022-12-28T00:46:51;11.88;;;7.75;;
12441;SDS011;6285;48.804;9.220;2022-12-28T00:49:18;10.00;;;7.90;;
12441;SDS011;6285;48.804;9.220;2022-12-28T00:51:46;10.15;;;8.05;;
12441;SDS011;6285;48.804;9.220;2022-12-28T00:54:14;14.50;;;7.78;;
12441;SDS011;6285;48.804;9.220;2022-12-28T00:56:41;10.68;;;7.47;;
12441;SDS011;6285;48.804;9.220;2022-12-28T00:59:08;11.15;;;7.60;;
12441;SDS011;6285;48.804;9.220;2022-12-28T01:01:35;11.43;;;7.35;;
12441;SDS011;6285;48.804;9.220;2022-12-28T01:04:02;9.40;;;6.68;;
12441;SDS011;6285;48.804;9.220;2022-12-28T01:06:29;11.57;;;7.25;;
12441;SDS011;6285;48.804;9.220;2022-12-28T01:08:58;11.13;;;6.78;;
12441;SDS011;6285;48.804;9.220;2022-12-28T01:11:26;8.35;;;7.45;;
12441;SDS011;6285;48.804;9.220;2022-12-28T01:13:54;10.23;;;6.90;;
12441;SDS011;6285;48.804;9.220;2022-12-28T01:16:21;8.18;;;7.03;;
12441;SDS011;6285;48.804;9.220;2022-12-28T01:18:50;9.48;;;6.78;;
12441;SDS011;6285;48.804;9.220;2022-12-28T01:21:18;8.40;;;6.70;;
12441;SDS011;6285;48.804;9.220;2022-12-28T01:23:46;8.60;;;6.75;;
12441;SDS011;6285;48.804;9.220;2022-12-28T01:26:15;8.30;;;6.50;;
12441;SDS011;6285;48.804;9.220;2022-12-28T01:28:42;7.90;;;6.38;;
12441;SDS011;6285;48.804;9.220;2022-12-28T01:31:10;9.38;;;6.75;;
12441;SDS011;6285;48.804;9.220;2022-12-28T01:33:37;8.80;;;6.43;;
12441;SDS011;6285;48.804;9.220;2022-12-28T01:36:05;8.63;;;6.38;;
12441;SDS011;6285;48.804;9.220;2022-12-28T01:38:32;8.57;;;6.47;;
12441;SDS011;6285;48.804;9.220;2022-12-28T01:40:59;9.73;;;6.65;;
12441;SDS011;6285;48.804;9.220;2022-12-28T01:43:35;11.32;;;6.80;;
12441;SDS011;6285;48.804;9.220;2022-12-28T01:46:03;9.07;;;6.32;;
12441;SDS011;6285;48.804;9.220;2022-12-28T01:48:31;8.23;;;6.20;;
12441;SDS011;6285;48.804;9.220;2022-12-28T01:50:58;9.32;;;6.57;;
12441;SDS011;6285;48.804;9.220;2022-12-28T01:53:25;8.00;;;6.35;;
12441;SDS011;6285;48.804;9.220;2022-12-28T01:55:52;9.85;;;6.78;;
12441;SDS011;6285;48.804;9.220;2022-12-28T01:58:20;11.93;;;6.82;;
12441;SDS011;6285;48.804;9.220;2022-12-28T02:00:49;8.00;;;6.47;;
12441;SDS011;6285;48.804;9.220;2022-12-28T02:03:17;9.00;;;6.28;;
12441;SDS011;6285;48.804;9.220;2022-12-28T02:05:46;10.48;;;6.13;;
12441;SDS011;6285;48.804;9.220;2022-12-28T02:08:16;12.15;;;6.47;;
12441;SDS011;6285;48.804;9.220;2022-12-28T02:10:44;10.68;;;6.13;;
12441;SDS011;6285;48.804;9.220;2022-12-28T02:13:12;10.93;;;6.70;;
12441;SDS011;6285;48.804;9.220;2022-12-28T02:15:39;10.48;;;6.43;;
12441;SDS011;6285;48.804;9.220;2022-12-28T02:18:08;11.45;;;6.55;;
12441;SDS011;6285;48.804;9.220;2022-12-28T02:20:38;11.02;;;6.35;;
12441;SDS011;6285;48.804;9.220;2022-12-28T02:23:20;7.30;;;6.57;;
12441;SDS011;6285;48.804;9.220;2022-12-28T02:26:03;8.68;;;6.30;;
12441;SDS011;6285;48.804;9.220;2022-12-28T02:28:44;7.13;;;5.97;;
12441;SDS011;6285;48.804;9.220;2022-12-28T02:31:16;9.63;;;6.75;;
12441;SDS011;6285;48.804;9.220;2022-12-28T02:33:46;9.43;;;6.65;;
12441;SDS011;6285;48.804;9.220;2022-12-28T02:36:15;10.68;;;6.15;;
12441;SDS011;6285;48.804;9.220;2022-12-28T02:38:44;7.53;;;5.68;;
12441;SDS011;6285;48.804;9.220;2022-12-28T02:41:13;9.00;;;5.93;;
12441;SDS011;6285;48.804;9.220;2022-12-28T02:43:41;10.63;;;6.45;;
12441;SDS011;6285;48.804;9.220;2022-12-28T02:46:10;8.35;;;6.05;;
12441;SDS011;6285;48.804;9.220;2022-12-28T02:48:56;9.95;;;6.65;;
12441;SDS011;6285;48.804;9.220;2022-12-28T02:51:44;8.07;;;5.93;;
12441;SDS011;6285;48.804;9.220;2022-12-28T02:54:20;9.82;;;6.10;;
12441;SDS011;6285;48.804;9.220;2022-12-28T02:57:04;10.35;;;6.20;;
12441;SDS011;6285;48.804;9.220;2022-12-28T02:59:38;8.25;;;5.63;;
12441;SDS011;6285;48.804;9.220;2022-12-28T03:02:19;9.15;;;6.40;;
12441;SDS011;6285;48.804;9.220;2022-12-28T03:05:02;10.35;;;6.68;;
12441;SDS011;6285;48.804;9.220;2022-12-28T03:07:34;7.57;;;5.35;;
12441;SDS011;6285;48.804;9.220;2022-12-28T03:10:22;8.15;;;5.82;;
12441;SDS011;6285;48.804;9.220;2022-12-28T03:12:54;7.57;;;5.53;;
12441;SDS011;6285;48.804;9.220;2022-12-28T03:15:23;8.38;;;6.20;;
12441;SDS011;6285;48.804;9.220;2022-12-28T03:18:00;7.63;;;5.47;;
12441;SDS011;6285;48.804;9.220;2022-12-28T03:20:46;6.55;;;5.35;;
12441;SDS011;6285;48.804;9.220;2022-12-28T03:23:31;7.53;;;5.53;;
12441;SDS011;6285;48.804;9.220;2022-12-28T03:26:17;6.85;;;5.15;;
12441;SDS011;6285;48.804;9.220;2022-12-28T03:29:03;8.35;;;5.57;;
12441;SDS011;6285;48.804;9.220;2022-12-28T03:31:49;8.98;;;5.63;;
12441;SDS011;6285;48.804;9.220;2022-12-28T03:34:18;7.00;;;5.40;;
12441;SDS011;6285;48.804;9.220;2022-12-28T03:36:47;9.65;;;5.53;;
12441;SDS011;6285;48.804;9.220;2022-12-28T03:39:21;6.85;;;5.05;;
12441;SDS011;6285;48.804;9.220;2022-12-28T03:41:50;8.15;;;5.80;;
12441;SDS011;6285;48.804;9.220;2022-12-28T03:44:36;9.00;;;4.80;;
12441;SDS011;6285;48.804;9.220;2022-12-28T03:47:05;7.93;;;5.78;;
12441;SDS011;6285;48.804;9.220;2022-12-28T03:49:35;8.70;;;5.80;;
12441;SDS011;6285;48.804;9.220;2022-12-28T03:52:02;8.10;;;5.50;;
12441;SDS011;6285;48.804;9.220;2022-12-28T03:54:29;6.70;;;5.18;;
12441;SDS011;6285;48.804;9.220;2022-12-28T03:56:56;6.78;;;5.38;;
12441;SDS011;6285;48.804;9.220;2022-12-28T03:59:23;6.78;;;5.43;;
12441;SDS011;6285;48.804;9.220;2022-12-28T04:01:50;5.90;;;5.30;;
12441;SDS011;6285;48.804;9.220;2022-12-28T04:04:17;7.10;;;5.00;;
12441;SDS011;6285;48.804;9.220;2022-12-28T04:06:46;7.72;;;5.03;;
12441;SDS011;6285;48.804;9.220;2022-12-28T04:09:13;6.90;;;5.57;;
12441;SDS011;6285;48.804;9.220;2022-12-28T04:11:40;7.43;;;5.50;;
12441;SDS011;6285;48.804;9.220;2022-12-28T04:14:07;7.18;;;5.10;;
12441;SDS011;6285;48.804;9.220;2022-12-28T04:16:34;8.45;;;5.53;;
12441;SDS011;6285;48.804;9.220;2022-12-28T04:19:01;6.30;;;5.32;;
12441;SDS011;6285;48.804;9.220;2022-12-28T04:21:28;6.32;;;5.00;;
12441;SDS011;6285;48.804;9.220;2022-12-28T04:23:56;7.60;;;5.43;;
12441;SDS011;6285;48.804;9.220;2022-12-28T04:26:23;7.00;;;5.57;;
12441;SDS011;6285;48.804;9.220;2022-12-28T04:28:50;7.65;;;5.80;;
12441;SDS011;6285;48.804;9.220;2022-12-28T04:31:18;7.20;;;5.30;;
12441;SDS011;6285;48.804;9.220;2022-12-28T04:33:45;7.57;;;5.68;;
12441;SDS011;6285;48.804;9.220;2022-12-28T04:36:13;11.63;;;5.93;;
12441;SDS011;6285;48.804;9.220;2022-12-28T04:38:41;6.88;;;4.82;;
12441;SDS011;6285;48.804;9.220;2022-12-28T04:41:09;7.63;;;5.60;;
12441;SDS011;6285;48.804;9.220;2022-12-28T04:43:37;6.70;;;5.15;;
12441;SDS011;6285;48.804;9.220;2022-12-28T04:46:05;5.72;;;4.40;;
12441;SDS011;6285;48.804;9.220;2022-12-28T04:48:32;5.50;;;4.38;;
12441;SDS011;6285;48.804;9.220;2022-12-28T04:51:04;5.38;;;4.68;;
12441;SDS011;6285;48.804;9.220;2022-12-28T04:53:31;7.15;;;4.70;;
12441;SDS011;6285;48.804;9.220;2022-12-28T04:56:01;6.95;;;4.97;;
12441;SDS011;6285;48.804;9.220;2022-12-28T04:58:30;7.25;;;4.95;;
12441;SDS011;6285;48.804;9.220;2022-12-28T05:01:00;6.55;;;4.50;;
12441;SDS011;6285;48.804;9.220;2022-12-28T05:03:27;6.15;;;4.65;;
12441;SDS011;6285;48.804;9.220;2022-12-28T05:05:58;4.03;;;2.67;;
12441;SDS011;6285;48.804;9.220;2022-12-28T05:08:25;4.70;;;3.85;;
12441;SDS011;6285;48.804;9.220;2022-12-28T05:10:52;4.68;;;3.08;;
12441;SDS011;6285;48.804;9.220;2022-12-28T05:13:19;4.00;;;2.33;;
12441;SDS011;6285;48.804;9.220;2022-12-28T05:15:48;3.92;;;2.65;;
12441;SDS011;6285;48.804;9.220;2022-12-28T05:18:15;3.83;;;3.25;;
12441;SDS011;6285;48.804;9.220;2022-12-28T05:20:42;5.50;;;3.10;;
12441;SDS011;6285;48.804;9.220;2022-12-28T05:23:09;4.20;;;2.60;;
12441;SDS011;6285;48.804;9.220;2022-12-28T05:25:35;4.78;;;2.10;;
12441;SDS011;6285;48.804;9.220;2022-12-28T05:28:03;3.38;;;2.53;;
12441;SDS011;6285;48.804;9.220;2022-12-28T05:30:30;4.50;;;2.67;;
12441;SDS011;6285;48.804;9.220;2022-12-28T05:32:58;3.35;;;2.55;;
12441;SDS011;6285;48.804;9.220;2022-12-28T05:35:25;3.65;;;2.70;;
12441;SDS011;6285;48.804;9.220;2022-12-28T05:37:52;4.22;;;2.10;;
12441;SDS011;6285;48.804;9.220;2022-12-28T05:40:19;3.30;;;1.92;;
12441;SDS011;6285;48.804;9.220;2022-12-28T05:42:46;4.38;;;1.83;;
12441;SDS011;6285;48.804;9.220;2022-12-28T05:45:13;5.75;;;2.00;;
12441;SDS011;6285;48.804;9.220;2022-12-28T05:47:40;2.80;;;1.50;;
12441;SDS011;6285;48.804;9.220;2022-12-28T05:50:09;4.05;;;1.80;;
12441;SDS011;6285;48.804;9.220;2022-12-28T05:52:36;3.40;;;1.73;;
12441;SDS011;6285;48.804;9.220;2022-12-28T05:55:03;2.90;;;1.75;;
12441;SDS011;6285;48.804;9.220;2022-12-28T05:57:31;3.00;;;1.70;;
12441;SDS011;6285;48.804;9.220;2022-12-28T05:59:58;3.83;;;1.60;;
12441;SDS011;6285;48.804;9.220;2022-12-28T06:02:25;1.58;;;1.33;;
12441;SDS011;6285;48.804;9.220;2022-12-28T06:04:52;1.77;;;1.30;;
12441;SDS011;6285;48.804;9.220;2022-12-28T06:07:21;1.88;;;1.13;;
12441;SDS011;6285;48.804;9.220;2022-12-28T06:09:48;3.03;;;1.20;;
12441;SDS011;6285;48.804;9.220;2022-12-28T06:12:15;2.20;;;1.20;;
12441;SDS011;6285;48.804;9.220;2022-12-28T06:14:42;3.15;;;1.02;;
12441;SDS011;6285;48.804;9.220;2022-12-28T06:17:09;3.20;;;1.20;;
12441;SDS011;6285;48.804;9.220;2022-12-28T06:19:36;4.13;;;1.55;;
12441;SDS011;6285;48.804;9.220;2022-12-28T06:22:03;1.98;;;1.38;;
12441;SDS011;6285;48.804;9.220;2022-12-28T06:24:31;2.95;;;1.30;;
12441;SDS011;6285;48.804;9.220;2022-12-28T06:26:59;3.22;;;1.42;;
12441;SDS011;6285;48.804;9.220;2022-12-28T06:29:26;3.78;;;1.70;;
12441;SDS011;6285;48.804;9.220;2022-12-28T06:31:53;2.42;;;1.63;;
12441;SDS011;6285;48.804;9.220;2022-12-28T06:34:20;1.50;;;1.40;;
12441;SDS011;6285;48.804;9.220;2022-12-28T06:36:48;3.00;;;2.17;;
12441;SDS011;6285;48.804;9.220;2022-12-28T06:39:16;3.90;;;2.20;;
12441;SDS011;6285;48.804;9.220;2022-12-28T06:41:45;3.75;;;2.33;;
12441;SDS011;6285;48.804;9.220;2022-12-28T06:44:12;4.10;;;2.10;;
12441;SDS011;6285;48.804;9.220;2022-12-28T06:46:39;4.18;;;2.38;;
12441;SDS011;6285;48.804;9.220;2022-12-28T06:49:06;2.97;;;2.33;;
12441;SDS011;6285;48.804;9.220;2022-12-28T06:51:34;4.75;;;2.28;;
12441;SDS011;6285;48.804;9.220;2022-12-28T06:54:04;4.07;;;2.13;;
12441;SDS011;6285;48.804;9.220;2022-12-28T06:56:32;3.03;;;2.50;;
12441;SDS011;6285;48.804;9.220;2022-12-28T06:59:01;3.08;;;2.50;;
12441;SDS011;6285;48.804;9.220;2022-12-28T07:01:28;4.60;;;2.80;;
12441;SDS011;6285;48.804;9.220;2022-12-28T07:03:57;4.15;;;2.70;;
12441;SDS011;6285;48.804;9.220;2022-12-28T07:06:24;4.70;;;3.10;;
12441;SDS011;6285;48.804;9.220;2022-12-28T07:08:56;5.45;;;3.20;;
12441;SDS011;6285;48.804;9.220;2022-12-28T07:11:24;4.43;;;2.80;;
12441;SDS011;6285;48.804;9.220;2022-12-28T07:13:51;3.05;;;2.58;;
12441;SDS011;6285;48.804;9.220;2022-12-28T07:16:20;4.75;;;2.42;;
12441;SDS011;6285;48.804;9.220;2022-12-28T07:18:48;4.18;;;2.80;;
12441;SDS011;6285;48.804;9.220;2022-12-28T07:21:16;5.82;;;3.10;;
12441;SDS011;6285;48.804;9.220;2022-12-28T07:23:44;7.53;;;3.85;;
12441;SDS011;6285;48.804;9.220;2022-12-28T07:26:12;6.80;;;4.43;;
12441;SDS011;6285;48.804;9.220;2022-12-28T07:28:40;8.30;;;4.72;;
12441;SDS011;6285;48.804;9.220;2022-12-28T07:31:08;6.53;;;4.50;;
12441;SDS011;6285;48.804;9.220;2022-12-28T07:33:37;7.63;;;4.70;;
12441;SDS011;6285;48.804;9.220;2022-12-28T07:36:05;6.95;;;4.93;;
12441;SDS011;6285;48.804;9.220;2022-12-28T07:38:32;8.23;;;5.03;;
12441;SDS011;6285;48.804;9.220;2022-12-28T07:41:00;6.53;;;5.32;;
12441;SDS011;6285;48.804;9.220;2022-12-28T07:43:27;10.05;;;5.00;;
12441;SDS011;6285;48.804;9.220;2022-12-28T07:45:59;5.75;;;4.78;;
12441;SDS011;6285;48.804;9.220;2022-12-28T07:48:27;7.20;;;5.40;;
12441;SDS011;6285;48.804;9.220;2022-12-28T07:50:55;6.82;;;4.97;;
12441;SDS011;6285;48.804;9.220;2022-12-28T07:53:22;6.18;;;5.00;;
12441;SDS011;6285;48.804;9.220;2022-12-28T07:55:53;10.65;;;6.20;;
12441;SDS011;6285;48.804;9.220;2022-12-28T07:58:20;8.38;;;5.22;;
12441;SDS011;6285;48.804;9.220;2022-12-28T08:00:48;12.00;;;5.80;;
12441;SDS011;6285;48.804;9.220;2022-12-28T08:03:15;7.95;;;5.82;;
12441;SDS011;6285;48.804;9.220;2022-12-28T08:05:42;8.60;;;5.65;;
12441;SDS011;6285;48.804;9.220;2022-12-28T08:08:11;6.35;;;5.13;;
12441;SDS011;6285;48.804;9.220;2022-12-28T08:10:38;8.25;;;5.57;;
12441;SDS011;6285;48.804;9.220;2022-12-28T08:13:05;7.28;;;5.03;;
12441;SDS011;6285;48.804;9.220;2022-12-28T08:15:32;8.70;;;5.57;;
12441;SDS011;6285;48.804;9.220;2022-12-28T08:17:59;7.93;;;5.40;;
12441;SDS011;6285;48.804;9.220;2022-12-28T08:20:26;9.68;;;5.72;;
12441;SDS011;6285;48.804;9.220;2022-12-28T08:22:53;7.47;;;5.47;;
12441;SDS011;6285;48.804;9.220;2022-12-28T08:25:21;6.85;;;5.30;;
12441;SDS011;6285;48.804;9.220;2022-12-28T08:27:48;9.95;;;5.63;;
12441;SDS011;6285;48.804;9.220;2022-12-28T08:30:15;6.88;;;5.22;;
12441;SDS011;6285;48.804;9.220;2022-12-28T08:32:42;7.55;;;4.80;;
12441;SDS011;6285;48.804;9.220;2022-12-28T08:35:09;8.68;;;5.60;;
12441;SDS011;6285;48.804;9.220;2022-12-28T08:37:36;7.43;;;4.70;;
12441;SDS011;6285;48.804;9.220;2022-12-28T08:40:04;8.60;;;4.93;;
12441;SDS011;6285;48.804;9.220;2022-12-28T08:42:33;7.53;;;5.20;;
12441;SDS011;6285;48.804;9.220;2022-12-28T08:45:00;6.30;;;4.65;;
12441;SDS011;6285;48.804;9.220;2022-12-28T08:47:27;7.53;;;4.97;;
12441;SDS011;6285;48.804;9.220;2022-12-28T08:49:54;6.90;;;4.53;;
12441;SDS011;6285;48.804;9.220;2022-12-28T08:52:21;7.65;;;4.85;;
12441;SDS011;6285;48.804;9.220;2022-12-28T08:54:48;7.97;;;5.10;;
12441;SDS011;6285;48.804;9.220;2022-12-28T08:57:15;7.70;;;5.10;;
12441;SDS011;6285;48.804;9.220;2022-12-28T08:59:44;10.48;;;5.20;;
12441;SDS011;6285;48.804;9.220;2022-12-28T09:02:11;9.18;;;4.82;;
12441;SDS011;6285;48.804;9.220;2022-12-28T09:04:38;7.45;;;4.70;;
12441;SDS011;6285;48.804;9.220;2022-12-28T09:07:06;5.15;;;4.00;;
12441;SDS011;6285;48.804;9.220;2022-12-28T09:09:33;6.78;;;4.43;;
12441;SDS011;6285;48.804;9.220;2022-12-28T09:12:00;4.63;;;3.60;;
12441;SDS011;6285;48.804;9.220;2022-12-28T09:14:27;5.93;;;3.45;;
12441;SDS011;6285;48.804;9.220;2022-12-28T09:16:55;4.70;;;3.10;;
12441;SDS011;6285;48.804;9.220;2022-12-28T09:19:22;4.13;;;2.90;;
12441;SDS011;6285;48.804;9.220;2022-12-28T09:21:50;3.33;;;3.00;;
12441;SDS011;6285;48.804;9.220;2022-12-28T09:24:19;6.13;;;3.30;;
12441;SDS011;6285;48.804;9.220;2022-12-28T09:26:46;6.18;;;3.00;;
12441;SDS011;6285;48.804;9.220;2022-12-28T09:29:16;5.28;;;3.05;;
12441;SDS011;6285;48.804;9.220;2022-12-28T09:31:43;5.78;;;3.40;;
12441;SDS011;6285;48.804;9.220;2022-12-28T09:34:11;4.57;;;2.75;;
12441;SDS011;6285;48.804;9.220;2022-12-28T09:36:39;2.92;;;2.10;;
12441;SDS011;6285;48.804;9.220;2022-12-28T09:39:07;4.53;;;2.03;;
12441;SDS011;6285;48.804;9.220;2022-12-28T09:41:38;3.90;;;2.17;;
12441;SDS011;6285;48.804;9.220;2022-12-28T09:44:16;5.35;;;2.15;;
12441;SDS011;6285;48.804;9.220;2022-12-28T09:46:46;4.47;;;2.25;;
12441;SDS011;6285;48.804;9.220;2022-12-28T09:49:20;3.33;;;2.40;;
12441;SDS011;6285;48.804;9.220;2022-12-28T09:51:51;7.32;;;3.05;;
12441;SDS011;6285;48.804;9.220;2022-12-28T09:54:18;5.97;;;2.60;;
12441;SDS011;6285;48.804;9.220;2022-12-28T09:56:45;3.95;;;2.30;;
12441;SDS011;6285;48.804;9.220;2022-12-28T09:59:15;2.55;;;1.85;;
12441;SDS011;6285;48.804;9.220;2022-12-28T10:01:42;3.65;;;2.35;;
12441;SDS011;6285;48.804;9.220;2022-12-28T10:04:10;2.78;;;2.20;;
12441;SDS011;6285;48.804;9.220;2022-12-28T10:06:40;3.13;;;2.30;;
12441;SDS011;6285;48.804;9.220;2022-12-28T10:09:10;2.58;;;2.15;;
12441;SDS011;6285;48.804;9.220;2022-12-28T10:11:41;5.15;;;2.25;;
12441;SDS011;6285;48.804;9.220;2022-12-28T10:14:14;4.28;;;2.38;;
12441;SDS011;6285;48.804;9.220;2022-12-28T10:16:43;2.72;;;2.30;;
12441;SDS011;6285;48.804;9.220;2022-12-28T10:19:10;3.65;;;2.40;;
12441;SDS011;6285;48.804;9.220;2022-12-28T10:21:37;3.50;;;2.50;;
12441;SDS011;6285;48.804;9.220;2022-12-28T10:24:06;4.68;;;2.53;;
12441;SDS011;6285;48.804;9.220;2022-12-28T10:26:33;3.92;;;2.30;;
12441;SDS011;6285;48.804;9.220;2022-12-28T10:29:01;4.72;;;2.40;;
12441;SDS011;6285;48.804;9.220;2022-12-28T10:31:31;4.38;;;2.40;;
12441;SDS011;6285;48.804;9.220;2022-12-28T10:33:58;2.92;;;2.20;;
12441;SDS011;6285;48.804;9.220;2022-12-28T10:36:26;3.03;;;2.33;;
12441;SDS011;6285;48.804;9.220;2022-12-28T10:38:53;4.22;;;2.30;;
12441;SDS011;6285;48.804;9.220;2022-12-28T10:41:23;2.67;;;1.80;;
12441;SDS011;6285;48.804;9.220;2022-12-28T10:43:58;3.47;;;1.70;;
12441;SDS011;6285;48.804;9.220;2022-12-28T10:46:25;4.13;;;2.10;;
12441;SDS011;6285;48.804;9.220;2022-12-28T10:48:53;2.75;;;2.03;;
12441;SDS011;6285;48.804;9.220;2022-12-28T10:51:21;3.42;;;1.70;;
12441;SDS011;6285;48.804;9.220;2022-12-28T10:53:49;3.35;;;1.80;;
12441;SDS011;6285;48.804;9.220;2022-12-28T10:56:21;2.90;;;1.65;;
12441;SDS011;6285;48.804;9.220;2022-12-28T10:58:50;4.30;;;2.03;;
12441;SDS011;6285;48.804;9.220;2022-12-28T11:01:22;3.78;;;1.63;;
12441;SDS011;6285;48.804;9.220;2022-12-28T11:03:58;3.63;;;2.00;;
12441;SDS011;6285;48.804;9.220;2022-12-28T11:06:27;5.38;;;3.38;;
12441;SDS011;6285;48.804;9.220;2022-12-28T11:09:05;8.23;;;4.22;;
12441;SDS011;6285;48.804;9.220;2022-12-28T11:11:32;4.78;;;2.50;;
12441;SDS011;6285;48.804;9.220;2022-12-28T11:14:01;3.10;;;1.30;;
12441;SDS011;6285;48.804;9.220;2022-12-28T11:16:31;2.03;;;1.30;;
12441;SDS011;6285;48.804;9.220;2022-12-28T11:18:59;4.00;;;1.10;;
12441;SDS011;6285;48.804;9.220;2022-12-28T11:21:26;1.13;;;0.90;;
12441;SDS011;6285;48.804;9.220;2022-12-28T11:23:53;1.60;;;0.88;;
12441;SDS011;6285;48.804;9.220;2022-12-28T11:26:20;2.08;;;1.00;;
12441;SDS011;6285;48.804;9.220;2022-12-28T11:28:48;1.88;;;1.13;;
12441;SDS011;6285;48.804;9.220;2022-12-28T11:31:20;2.00;;;0.88;;
12441;SDS011;6285;48.804;9.220;2022-12-28T11:33:49;3.38;;;1.25;;
12441;SDS011;6285;48.804;9.220;2022-12-28T11:36:18;2.58;;;1.20;;
12441;SDS011;6285;48.804;9.220;2022-12-28T11:38:46;2.22;;;1.38;;
12441;SDS011;6285;48.804;9.220;2022-12-28T11:43:56;4.40;;;1.08;;
12441;SDS011;6285;48.804;9.220;2022-12-28T11:46:42;1.58;;;1.20;;
12441;SDS011;6285;48.804;9.220;2022-12-28T11:49:23;5.22;;;1.58;;
12441;SDS011;6285;48.804;9.220;2022-12-28T11:54:37;3.97;;;1.38;;
12441;SDS011;6285;48.804;9.220;2022-12-28T11:57:06;2.60;;;1.00;;
12441;SDS011;6285;48.804;9.220;2022-12-28T11:59:35;2.95;;;1.23;;
12441;SDS011;6285;48.804;9.220;2022-12-28T12:02:36;2.20;;;1.20;;
12441;SDS011;6285;48.804;9.220;2022-12-28T12:04:55;1.42;;;0.90;;
12441;SDS011;6285;48.804;9.220;2022-12-28T12:07:23;2.80;;;1.73;;
12441;SDS011;6285;48.804;9.220;2022-12-28T12:12:46;2.83;;;1.95;;
12441;SDS011;6285;48.804;9.220;2022-12-28T12:15:14;2.78;;;1.20;;
12441;SDS011;6285;48.804;9.220;2022-12-28T12:17:44;2.65;;;1.05;;
12441;SDS011;6285;48.804;9.220;2022-12-28T12:22:58;4.38;;;1.25;;
12441;SDS011;6285;48.804;9.220;2022-12-28T12:25:31;2.13;;;1.00;;
12441;SDS011;6285;48.804;9.220;2022-12-28T12:27:59;2.33;;;1.10;;
12441;SDS011;6285;48.804;9.220;2022-12-28T12:30:29;3.40;;;2.20;;
12441;SDS011;6285;48.804;9.220;2022-12-28T12:32:58;3.70;;;2.10;;
12441;SDS011;6285;48.804;9.220;2022-12-28T12:35:27;5.43;;;1.40;;
12441;SDS011;6285;48.804;9.220;2022-12-28T12:37:57;1.45;;;1.27;;
12441;SDS011;6285;48.804;9.220;2022-12-28T12:40:41;2.22;;;1.38;;
12441;SDS011;6285;48.804;9.220;2022-12-28T12:43:19;3.95;;;1.40;;
12441;SDS011;6285;48.804;9.220;2022-12-28T12:45:50;3.17;;;1.35;;
12441;SDS011;6285;48.804;9.220;2022-12-28T12:48:29;2.63;;;1.40;;
12441;SDS011;6285;48.804;9.220;2022-12-28T12:51:01;2.00;;;1.13;;
12441;SDS011;6285;48.804;9.220;2022-12-28T12:53:49;3.60;;;1.83;;
12441;SDS011;6285;48.804;9.220;2022-12-28T12:56:24;7.30;;;1.52;;
12441;SDS011;6285;48.804;9.220;2022-12-28T12:58:55;5.07;;;1.90;;
12441;SDS011;6285;48.804;9.220;2022-12-28T13:01:27;3.38;;;1.90;;
12441;SDS011;6285;48.804;9.220;2022-12-28T13:03:57;2.80;;;1.52;;
12441;SDS011;6285;48.804;9.220;2022-12-28T13:06:25;1.95;;;1.05;;
12441;SDS011;6285;48.804;9.220;2022-12-28T13:08:55;2.08;;;1.23;;
12441;SDS011;6285;48.804;9.220;2022-12-28T13:11:23;1.73;;;1.40;;
12441;SDS011;6285;48.804;9.220;2022-12-28T13:13:51;3.78;;;1.80;;
12441;SDS011;6285;48.804;9.220;2022-12-28T13:16:19;2.38;;;1.20;;
12441;SDS011;6285;48.804;9.220;2022-12-28T13:18:54;2.33;;;1.20;;
12441;SDS011;6285;48.804;9.220;2022-12-28T13:21:23;3.15;;;1.20;;
12441;SDS011;6285;48.804;9.220;2022-12-28T13:23:50;3.20;;;1.13;;
12441;SDS011;6285;48.804;9.220;2022-12-28T13:26:19;3.72;;;1.98;;
12441;SDS011;6285;48.804;9.220;2022-12-28T13:28:49;4.28;;;2.15;;
12441;SDS011;6285;48.804;9.220;2022-12-28T13:31:17;3.67;;;1.33;;
12441;SDS011;6285;48.804;9.220;2022-12-28T13:36:31;2.50;;;1.30;;
12441;SDS011;6285;48.804;9.220;2022-12-28T13:39:00;2.95;;;1.45;;
12441;SDS011;6285;48.804;9.220;2022-12-28T13:41:28;4.20;;;1.90;;
12441;SDS011;6285;48.804;9.220;2022-12-28T13:44:11;3.15;;;1.95;;
12441;SDS011;6285;48.804;9.220;2022-12-28T13:46:40;3.45;;;1.90;;
12441;SDS011;6285;48.804;9.220;2022-12-28T13:49:08;1.83;;;1.17;;
12441;SDS011;6285;48.804;9.220;2022-12-28T13:51:37;2.95;;;2.08;;
12441;SDS011;6285;48.804;9.220;2022-12-28T13:54:05;4.53;;;2.60;;
12441;SDS011;6285;48.804;9.220;2022-12-28T13:56:33;9.00;;;4.45;;
12441;SDS011;6285;48.804;9.220;2022-12-28T13:59:04;5.03;;;2.40;;
12441;SDS011;6285;48.804;9.220;2022-12-28T14:01:33;3.08;;;1.63;;
12441;SDS011;6285;48.804;9.220;2022-12-28T14:04:02;4.45;;;1.90;;
12441;SDS011;6285;48.804;9.220;2022-12-28T14:06:30;5.97;;;3.25;;
12441;SDS011;6285;48.804;9.220;2022-12-28T14:08:59;36.75;;;18.02;;
12441;SDS011;6285;48.804;9.220;2022-12-28T14:11:26;26.50;;;12.70;;
12441;SDS011;6285;48.804;9.220;2022-12-28T14:13:54;17.25;;;8.18;;
12441;SDS011;6285;48.804;9.220;2022-12-28T14:16:22;7.47;;;2.88;;
12441;SDS011;6285;48.804;9.220;2022-12-28T14:18:50;4.30;;;2.17;;
12441;SDS011;6285;48.804;9.220;2022-12-28T14:21:29;3.83;;;2.00;;
12441;SDS011;6285;48.804;9.220;2022-12-28T14:24:02;2.40;;;1.65;;
12441;SDS011;6285;48.804;9.220;2022-12-28T14:26:29;2.50;;;1.55;;
12441;SDS011;6285;48.804;9.220;2022-12-28T14:28:58;4.60;;;2.72;;
12441;SDS011;6285;48.804;9.220;2022-12-28T14:31:25;10.93;;;5.72;;
12441;SDS011;6285;48.804;9.220;2022-12-28T14:33:54;52.92;;;23.02;;
12441;SDS011;6285;48.804;9.220;2022-12-28T14:36:22;65.68;;;26.85;;
12441;SDS011;6285;48.804;9.220;2022-12-28T14:38:50;37.60;;;16.40;;
12441;SDS011;6285;48.804;9.220;2022-12-28T14:41:19;17.90;;;9.40;;
12441;SDS011;6285;48.804;9.220;2022-12-28T14:43:49;13.00;;;7.03;;
12441;SDS011;6285;48.804;9.220;2022-12-28T14:46:24;17.63;;;8.13;;
12441;SDS011;6285;48.804;9.220;2022-12-28T14:48:53;16.83;;;8.07;;
12441;SDS011;6285;48.804;9.220;2022-12-28T14:51:24;12.02;;;5.47;;
12441;SDS011;6285;48.804;9.220;2022-12-28T14:56:37;39.13;;;17.05;;
12441;SDS011;6285;48.804;9.220;2022-12-28T14:59:05;33.80;;;13.75;;
12441;SDS011;6285;48.804;9.220;2022-12-28T15:01:38;21.10;;;9.75;;
12441;SDS011;6285;48.804;9.220;2022-12-28T15:04:05;8.70;;;4.75;;
12441;SDS011;6285;48.804;9.220;2022-12-28T15:06:32;4.80;;;3.22;;
12441;SDS011;6285;48.804;9.220;2022-12-28T15:08:59;5.20;;;3.22;;
12441;SDS011;6285;48.804;9.220;2022-12-28T15:11:30;3.45;;;2.42;;
12441;SDS011;6285;48.804;9.220;2022-12-28T15:13:58;7.47;;;5.13;;
12441;SDS011;6285;48.804;9.220;2022-12-28T15:16:25;5.45;;;3.17;;
12441;SDS011;6285;48.804;9.220;2022-12-28T15:18:52;4.97;;;2.47;;
12441;SDS011;6285;48.804;9.220;2022-12-28T15:21:21;4.53;;;2.10;;
12441;SDS011;6285;48.804;9.220;2022-12-28T15:23:48;6.15;;;3.40;;
12441;SDS011;6285;48.804;9.220;2022-12-28T15:26:16;6.97;;;4.55;;
12441;SDS011;6285;48.804;9.220;2022-12-28T15:28:43;6.50;;;3.17;;